Defne-s — TCTI5 — position and weather

sailwx.info

Track history (hours):
 
Tides and Currents Weather Stations Pressure Air Temp Water Temp Dewpoint Dewpoint Depression Visibility Wind Speed Wind Dir Waves Ship Positions

Defne-s

Last reported at 2018-Feb-18 21:13 UTC. Time now 2018-Feb-19 00:14 UTC.
Position N 32°51' E 035°01'.

Length 109 m; draft 5.6 m.

Type: Tanker. MMSI: 271002639.

Date/timePositionNaut miles runAvg speedWind from/ knotsBaromVisibWave heightAir tempDewpointWater temp
2018-Feb-18 21:13N 32°51' E 035°01'1 1.9
2018-Feb-18 20:43N 32°51' E 034°60'1 6.1
2018-Feb-18 20:28N 32°53' E 035°00'1 1.8
2018-Feb-18 20:00N 32°53' E 035°01'0 0.0
2018-Feb-18 11:48N 32°53' E 035°01'0 0.0
2018-Feb-18 04:11N 32°53' E 035°01'0 0.1
2018-Feb-18 03:56N 32°53' E 035°01'0 0.0
2018-Feb-18 03:29N 32°53' E 035°01'0 0.0
2018-Feb-18 02:47N 32°53' E 035°01'0 0.1
2018-Feb-18 02:29N 32°53' E 035°01'0 0.0
2018-Feb-17 19:05N 32°53' E 035°01'0 0.2
2018-Feb-17 18:38N 32°53' E 035°01'0 0.0
2018-Feb-17 18:26N 32°53' E 035°01'0 0.0
2018-Feb-17 14:52N 32°53' E 035°01'0 0.0
2018-Feb-17 14:29N 32°53' E 035°01'0 0.0
2018-Feb-17 09:34N 32°53' E 035°01'0 0.1
2018-Feb-17 09:16N 32°53' E 035°01'0 0.0
2018-Feb-16 23:25N 32°53' E 035°01'0 0.2
2018-Feb-16 23:00N 32°53' E 035°01'0 0.1
2018-Feb-16 22:20N 32°53' E 035°01'0 0.1
2018-Feb-16 21:51N 32°53' E 035°01'0 0.0
2018-Feb-16 21:29N 32°53' E 035°01'0 0.1
2018-Feb-16 20:55N 32°53' E 035°01'0 0.0
2018-Feb-16 20:30N 32°53' E 035°01'2 4.6
2018-Feb-16 19:58N 32°53' E 034°58'613.0
2018-Feb-16 19:30N 32°53' E 034°51'713.8
2018-Feb-16 19:00N 32°55' E 034°43'714.0
2018-Feb-16 18:30N 32°56' E 034°35'  
2018-Feb-13 21:05N 40°58' E 028°53'0 0.0
2018-Feb-13 13:00N 40°58' E 028°53'4 0.7
2018-Feb-13 07:13N 40°56' E 028°58'411.6
2018-Feb-13 06:54N 40°53' E 029°00'411.4
2018-Feb-13 06:30N 40°50' E 029°04'611.8
2018-Feb-13 06:00N 40°47' E 029°11'611.5
2018-Feb-13 05:31N 40°45' E 029°18'611.1
2018-Feb-13 05:00N 40°45' E 029°26'711.0
2018-Feb-13 04:24N 40°45' E 029°34'513.2
2018-Feb-13 04:00N 40°45' E 029°41'2 0.0
2018-Feb-11 12:20N 40°46' E 029°43'3 0.3
2018-Feb-11 03:54N 40°45' E 029°40'611.7
2018-Feb-11 03:25N 40°45' E 029°32'510.7
2018-Feb-11 02:58N 40°44' E 029°26'4 8.9
2018-Feb-11 02:30N 40°43' E 029°21'3 6.5
2018-Feb-11 01:59N 40°44' E 029°16'3 6.9
2018-Feb-11 01:30N 40°46' E 029°12'4 7.1
2018-Feb-11 01:00N 40°47' E 029°08'4 7.1
2018-Feb-11 00:30N 40°49' E 029°04'4 7.3
2018-Feb-10 23:58N 40°51' E 028°59'4 7.4
2018-Feb-10 23:29N 40°53' E 028°57'4 7.6
2018-Feb-10 22:57N 40°57' E 028°57'154 6.3
2018-Feb-09 22:40N 43°31' E 028°51'4311.7
2018-Feb-09 19:01N 44°14' E 028°46'  
Track history (hours):
 
Tides and Currents Weather Stations Pressure Air Temp Water Temp Dewpoint Dewpoint Depression Visibility Wind Speed Wind Dir Waves Ship Positions

Defne-s

Last reported at 2018-Feb-18 21:13 UTC. Time now 2018-Feb-19 00:14 UTC.
Position N 32°51' E 035°01'.

Length 109 m; draft 5.6 m.

Type: Tanker. MMSI: 271002639.

Date/timePositionNaut miles runAvg speedWind from/ knotsBaromVisibWave heightAir tempDewpointWater temp
2018-Feb-18 21:13N 32°51' E 035°01'1 1.9
2018-Feb-18 20:43N 32°51' E 034°60'1 6.1
2018-Feb-18 20:28N 32°53' E 035°00'1 1.8
2018-Feb-18 20:00N 32°53' E 035°01'0 0.0
2018-Feb-18 11:48N 32°53' E 035°01'0 0.0
2018-Feb-18 04:11N 32°53' E 035°01'0 0.1
2018-Feb-18 03:56N 32°53' E 035°01'0 0.0
2018-Feb-18 03:29N 32°53' E 035°01'0 0.0
2018-Feb-18 02:47N 32°53' E 035°01'0 0.1
2018-Feb-18 02:29N 32°53' E 035°01'0 0.0
2018-Feb-17 19:05N 32°53' E 035°01'0 0.2
2018-Feb-17 18:38N 32°53' E 035°01'0 0.0
2018-Feb-17 18:26N 32°53' E 035°01'0 0.0
2018-Feb-17 14:52N 32°53' E 035°01'0 0.0
2018-Feb-17 14:29N 32°53' E 035°01'0 0.0
2018-Feb-17 09:34N 32°53' E 035°01'0 0.1
2018-Feb-17 09:16N 32°53' E 035°01'0 0.0
2018-Feb-16 23:25N 32°53' E 035°01'0 0.2
2018-Feb-16 23:00N 32°53' E 035°01'0 0.1
2018-Feb-16 22:20N 32°53' E 035°01'0 0.1
2018-Feb-16 21:51N 32°53' E 035°01'0 0.0
2018-Feb-16 21:29N 32°53' E 035°01'0 0.1
2018-Feb-16 20:55N 32°53' E 035°01'0 0.0
2018-Feb-16 20:30N 32°53' E 035°01'2 4.6
2018-Feb-16 19:58N 32°53' E 034°58'613.0
2018-Feb-16 19:30N 32°53' E 034°51'713.8
2018-Feb-16 19:00N 32°55' E 034°43'714.0
2018-Feb-16 18:30N 32°56' E 034°35'  
2018-Feb-13 21:05N 40°58' E 028°53'0 0.0
2018-Feb-13 13:00N 40°58' E 028°53'4 0.7
2018-Feb-13 07:13N 40°56' E 028°58'411.6
2018-Feb-13 06:54N 40°53' E 029°00'411.4
2018-Feb-13 06:30N 40°50' E 029°04'611.8
2018-Feb-13 06:00N 40°47' E 029°11'611.5
2018-Feb-13 05:31N 40°45' E 029°18'611.1
2018-Feb-13 05:00N 40°45' E 029°26'711.0
2018-Feb-13 04:24N 40°45' E 029°34'513.2
2018-Feb-13 04:00N 40°45' E 029°41'2 0.0
2018-Feb-11 12:20N 40°46' E 029°43'3 0.3
2018-Feb-11 03:54N 40°45' E 029°40'611.7
2018-Feb-11 03:25N 40°45' E 029°32'510.7
2018-Feb-11 02:58N 40°44' E 029°26'4 8.9
2018-Feb-11 02:30N 40°43' E 029°21'3 6.5
2018-Feb-11 01:59N 40°44' E 029°16'3 6.9
2018-Feb-11 01:30N 40°46' E 029°12'4 7.1
2018-Feb-11 01:00N 40°47' E 029°08'4 7.1
2018-Feb-11 00:30N 40°49' E 029°04'4 7.3
2018-Feb-10 23:58N 40°51' E 028°59'4 7.4
2018-Feb-10 23:29N 40°53' E 028°57'4 7.6
2018-Feb-10 22:57N 40°57' E 028°57'154 6.3
2018-Feb-09 22:40N 43°31' E 028°51'4311.7
2018-Feb-09 19:01N 44°14' E 028°46'  

Dump ship's entire track history